Time;durP1;ratioP1;P1;durP2;ratioP2;P2;SDS_P1;SDS_P2;PMS_P1;PMS_P2;Temp;Humidity;BMP_temperature;BMP_pressure;BME280_temperature;BME280_humidity;BME280_pressure;Samples;Min_cycle;Max_cycle;Signal;HPM_P1;HPM_P2
2022/04/07 00:02:10;;;;;;;11.10;1.63;;;;;;;;;;5037651;28;20052;-91
2022/04/07 00:04:37;;;;;;;13.15;1.90;;;;;;;;;;5053771;28;20120;-92
2022/04/07 00:07:05;;;;;;;9.02;1.85;;;;;;;;;;5038382;28;20439;-87
2022/04/07 00:09:32;;;;;;;11.00;2.40;;;;;;;;;;5032022;28;20394;-86
2022/04/07 00:11:59;;;;;;;8.15;1.88;;;;;;;;;;5048159;28;20033;-86
2022/04/07 00:14:25;;;;;;;13.93;1.88;;;;;;;;;;5054550;28;20037;-86
2022/04/07 00:16:52;;;;;;;16.20;2.58;;;;;;;;;;5034873;28;20037;-84
2022/04/07 00:19:22;;;;;;;15.65;2.55;;;;;;;;;;5045922;28;20033;-86
2022/04/07 00:21:48;;;;;;;8.20;1.60;;;;;;;;;;5036064;28;20057;-86
2022/04/07 00:24:15;;;;;;;16.73;1.88;;;;;;;;;;5051718;28;20147;-85
2022/04/07 00:26:41;;;;;;;16.13;2.30;;;;;;;;;;5034994;28;20392;-85
2022/04/07 00:29:08;;;;;;;9.95;1.63;;;;;;;;;;5057179;28;20032;-85
2022/04/07 00:31:39;;;;;;;9.38;1.80;;;;;;;;;;5040956;28;20051;-85
2022/04/07 00:34:07;;;;;;;12.10;2.00;;;;;;;;;;5054315;28;20225;-85
2022/04/07 00:36:33;;;;;;;9.95;1.40;;;;;;;;;;5053872;28;20033;-86
2022/04/07 00:39:06;;;;;;;6.80;1.63;;;;;;;;;;5046011;28;20384;-85
2022/04/07 00:41:32;;;;;;;10.32;1.60;;;;;;;;;;5039788;28;20523;-85
2022/04/07 00:43:58;;;;;;;14.77;1.27;;;;;;;;;;5044953;28;20492;-84
2022/04/07 00:46:30;;;;;;;8.55;1.90;;;;;;;;;;5048038;28;20494;-84
2022/04/07 00:48:56;;;;;;;13.27;2.58;;;;;;;;;;5048079;28;20277;-85
2022/04/07 00:51:23;;;;;;;17.90;2.22;;;;;;;;;;5041759;28;20043;-84
2022/04/07 00:53:49;;;;;;;15.23;1.63;;;;;;;;;;5043903;28;20036;-84
2022/04/07 00:56:15;;;;;;;11.52;2.05;;;;;;;;;;5048533;28;20036;-84
2022/04/07 00:58:45;;;;;;;12.45;2.10;;;;;;;;;;4690185;28;9999704;-84
2022/04/07 01:01:14;;;;;;;9.73;1.67;;;;;;;;;;5035888;28;20025;-84
2022/04/07 01:03:42;;;;;;;11.10;2.00;;;;;;;;;;5054144;28;20060;-84
2022/04/07 01:06:10;;;;;;;11.20;1.50;;;;;;;;;;5038896;28;20037;-85
2022/04/07 01:08:37;;;;;;;11.98;1.95;;;;;;;;;;5034523;28;20045;-84
2022/04/07 01:11:07;;;;;;;12.02;1.85;;;;;;;;;;5028574;28;20047;-84
2022/04/07 01:13:46;;;;;;;10.88;1.88;;;;;;;;;;5036088;28;20044;-85
2022/04/07 01:16:19;;;;;;;8.65;1.45;;;;;;;;;;5046979;28;20055;-84
2022/04/07 01:18:46;;;;;;;16.05;1.95;;;;;;;;;;5050829;28;20634;-84
2022/04/07 01:21:14;;;;;;;12.00;1.85;;;;;;;;;;5046340;28;20029;-84
2022/04/07 01:23:44;;;;;;;12.63;1.85;;;;;;;;;;5057949;28;20052;-84
2022/04/07 01:26:11;;;;;;;8.30;1.80;;;;;;;;;;5034590;28;20092;-85
2022/04/07 01:28:38;;;;;;;16.10;1.80;;;;;;;;;;5033435;28;20034;-85
2022/04/07 01:31:04;;;;;;;11.45;2.58;;;;;;;;;;5043798;28;20094;-85
2022/04/07 01:33:32;;;;;;;13.20;2.50;;;;;;;;;;5043163;28;20032;-85
2022/04/07 01:36:04;;;;;;;14.57;1.52;;;;;;;;;;5044770;28;20033;-85
2022/04/07 01:38:30;;;;;;;10.52;2.20;;;;;;;;;;5037946;28;20705;-85
2022/04/07 01:40:57;;;;;;;8.35;1.75;;;;;;;;;;5037079;28;20036;-84
2022/04/07 01:43:24;;;;;;;13.32;1.83;;;;;;;;;;5042627;28;20041;-85
2022/04/07 01:45:51;;;;;;;11.30;1.55;;;;;;;;;;5045241;28;20049;-85
2022/04/07 01:48:21;;;;;;;10.35;1.38;;;;;;;;;;5043091;28;20063;-85
2022/04/07 01:50:48;;;;;;;9.00;1.67;;;;;;;;;;5068168;28;20033;-86
2022/04/07 01:53:18;;;;;;;7.05;1.35;;;;;;;;;;5041064;28;20559;-85
2022/04/07 01:55:45;;;;;;;10.98;2.22;;;;;;;;;;5037658;28;20041;-85
2022/04/07 01:58:12;;;;;;;11.40;1.83;;;;;;;;;;5037698;28;20042;-85
2022/04/07 02:00:43;;;;;;;14.32;2.42;;;;;;;;;;5037726;28;20064;-85
2022/04/07 02:03:10;;;;;;;12.00;2.58;;;;;;;;;;5040738;28;20075;-83
2022/04/07 02:05:40;;;;;;;8.02;1.80;;;;;;;;;;5036469;28;20499;-83
2022/04/07 02:08:07;;;;;;;12.23;2.78;;;;;;;;;;5037681;28;20036;-83
2022/04/07 02:10:34;;;;;;;13.02;2.20;;;;;;;;;;5038060;28;20399;-83
2022/04/07 02:13:01;;;;;;;10.10;2.22;;;;;;;;;;5035607;28;20424;-83
2022/04/07 02:15:27;;;;;;;15.13;2.42;;;;;;;;;;5037891;28;20033;-84
2022/04/07 02:17:54;;;;;;;15.98;2.70;;;;;;;;;;5037588;28;20495;-85
2022/04/07 02:20:20;;;;;;;9.80;1.63;;;;;;;;;;5037832;28;20029;-85
2022/04/07 02:22:52;;;;;;;13.93;2.35;;;;;;;;;;5038752;28;20087;-84
2022/04/07 02:25:23;;;;;;;9.30;1.73;;;;;;;;;;5037187;28;20400;-83
2022/04/07 02:27:59;;;;;;;8.27;1.70;;;;;;;;;;5037602;28;20037;-84
2022/04/07 02:30:25;;;;;;;15.68;2.03;;;;;;;;;;5048495;28;20033;-84
2022/04/07 02:32:53;;;;;;;13.57;2.63;;;;;;;;;;5037476;28;20472;-84
2022/04/07 02:35:19;;;;;;;14.77;2.03;;;;;;;;;;5037272;28;20033;-84
2022/04/07 02:37:45;;;;;;;13.63;2.35;;;;;;;;;;5055389;28;20033;-84
2022/04/07 02:40:13;;;;;;;13.75;2.35;;;;;;;;;;5036017;28;20029;-83
2022/04/07 02:42:40;;;;;;;12.57;2.72;;;;;;;;;;5024161;28;20060;-84
2022/04/07 02:45:06;;;;;;;17.52;4.15;;;;;;;;;;5054561;28;20496;-84
2022/04/07 02:47:38;;;;;;;26.58;5.55;;;;;;;;;;5036555;28;20029;-84
2022/04/07 02:50:05;;;;;;;20.55;4.15;;;;;;;;;;5034158;28;20061;-85
2022/04/07 02:52:39;;;;;;;20.95;4.40;;;;;;;;;;5035111;28;20037;-85
2022/04/07 02:55:06;;;;;;;17.40;3.60;;;;;;;;;;5036966;28;20029;-87
2022/04/07 02:57:39;;;;;;;23.23;4.65;;;;;;;;;;5036791;28;20083;-86
2022/04/07 03:00:06;;;;;;;21.35;4.13;;;;;;;;;;5034325;28;20544;-87
2022/04/07 03:02:32;;;;;;;18.67;4.63;;;;;;;;;;5033368;28;20033;-87
2022/04/07 03:04:59;;;;;;;26.55;4.50;;;;;;;;;;5054971;28;20492;-87
2022/04/07 03:07:25;;;;;;;19.17;5.28;;;;;;;;;;5037544;28;20056;-87
2022/04/07 03:09:54;;;;;;;26.42;4.40;;;;;;;;;;5037792;28;20419;-87
2022/04/07 03:12:20;;;;;;;27.90;4.13;;;;;;;;;;5043696;28;20034;-88
2022/04/07 03:14:49;;;;;;;19.63;4.15;;;;;;;;;;5053093;28;20039;-86
2022/04/07 03:17:15;;;;;;;20.90;3.33;;;;;;;;;;5020058;28;20099;-87
2022/04/07 03:19:44;;;;;;;22.73;3.78;;;;;;;;;;5025125;28;20036;-87
2022/04/07 03:22:12;;;;;;;24.48;3.60;;;;;;;;;;5044111;28;20035;-87
2022/04/07 03:24:39;;;;;;;23.48;4.35;;;;;;;;;;5039298;28;20037;-87
2022/04/07 03:27:08;;;;;;;30.52;4.30;;;;;;;;;;5036594;28;20035;-85
2022/04/07 03:29:35;;;;;;;32.97;5.32;;;;;;;;;;5034310;28;20029;-87
2022/04/07 03:32:01;;;;;;;27.38;4.82;;;;;;;;;;5038856;28;20033;-87
2022/04/07 03:34:28;;;;;;;21.65;4.10;;;;;;;;;;5033438;28;20037;-86
2022/04/07 03:36:54;;;;;;;18.05;4.18;;;;;;;;;;5032160;28;20119;-85
2022/04/07 03:39:20;;;;;;;24.33;3.47;;;;;;;;;;5036898;28;20021;-86
2022/04/07 03:41:48;;;;;;;26.60;3.30;;;;;;;;;;5036278;28;20033;-86
2022/04/07 03:44:18;;;;;;;23.10;3.90;;;;;;;;;;5036939;28;20406;-87
2022/04/07 03:46:44;;;;;;;22.00;3.40;;;;;;;;;;5039020;28;20131;-86
2022/04/07 03:49:11;;;;;;;39.75;4.25;;;;;;;;;;5050946;28;20029;-86
2022/04/07 03:51:38;;;;;;;25.70;4.72;;;;;;;;;;5059587;28;20522;-87
2022/04/07 03:54:04;;;;;;;25.25;3.60;;;;;;;;;;5040615;28;20424;-87
2022/04/07 03:56:38;;;;;;;22.27;3.20;;;;;;;;;;5051802;28;20087;-87
2022/04/07 03:59:04;;;;;;;16.00;3.17;;;;;;;;;;5046725;28;20029;-86
2022/04/07 04:01:30;;;;;;;21.33;4.10;;;;;;;;;;5059380;28;20158;-86
2022/04/07 04:03:57;;;;;;;25.80;3.67;;;;;;;;;;5039183;28;20040;-87
2022/04/07 04:06:23;;;;;;;24.02;3.40;;;;;;;;;;5047170;28;20408;-87
2022/04/07 04:08:53;;;;;;;23.90;3.83;;;;;;;;;;5035665;28;20033;-85
2022/04/07 04:11:19;;;;;;;16.55;3.40;;;;;;;;;;5034483;28;20033;-86
2022/04/07 04:13:46;;;;;;;25.25;4.40;;;;;;;;;;5033262;28;20087;-85
2022/04/07 04:16:15;;;;;;;23.67;3.70;;;;;;;;;;5046538;28;20123;-86
2022/04/07 04:18:43;;;;;;;20.58;3.40;;;;;;;;;;5033218;28;20029;-86
2022/04/07 04:21:09;;;;;;;19.10;3.83;;;;;;;;;;5036154;28;20029;-86
2022/04/07 04:23:39;;;;;;;21.00;4.20;;;;;;;;;;5052540;28;20116;-85
2022/04/07 04:26:06;;;;;;;26.50;4.03;;;;;;;;;;5041936;28;20036;-86
2022/04/07 04:28:33;;;;;;;15.68;3.80;;;;;;;;;;5036364;28;20038;-86
2022/04/07 04:30:59;;;;;;;16.15;3.33;;;;;;;;;;5022647;28;20041;-87
2022/04/07 04:33:27;;;;;;;20.20;3.60;;;;;;;;;;5025317;28;20048;-86
2022/04/07 04:35:53;;;;;;;14.10;3.47;;;;;;;;;;5040162;28;20044;-86
2022/04/07 04:38:21;;;;;;;14.70;3.55;;;;;;;;;;5045156;28;20494;-85
2022/04/07 04:40:48;;;;;;;13.43;3.25;;;;;;;;;;5034210;28;20033;-86
2022/04/07 04:43:14;;;;;;;17.52;3.17;;;;;;;;;;5041407;28;20029;-85
2022/04/07 04:45:40;;;;;;;19.05;3.25;;;;;;;;;;5045293;28;20471;-85
2022/04/07 04:48:07;;;;;;;24.38;3.78;;;;;;;;;;5019605;28;20045;-86
2022/04/07 04:50:33;;;;;;;23.38;5.25;;;;;;;;;;5021463;28;20044;-87
2022/04/07 04:52:59;;;;;;;26.20;4.50;;;;;;;;;;5020954;28;20527;-86
2022/04/07 04:55:26;;;;;;;14.88;3.20;;;;;;;;;;5029342;28;20025;-86
2022/04/07 04:57:52;;;;;;;18.15;3.13;;;;;;;;;;5039556;28;20180;-86
2022/04/07 05:00:19;;;;;;;18.02;3.05;;;;;;;;;;5023327;28;20176;-87
2022/04/07 05:02:45;;;;;;;23.48;3.47;;;;;;;;;;5015402;28;20104;-86
2022/04/07 05:05:12;;;;;;;14.75;3.42;;;;;;;;;;5017884;28;20033;-86
2022/04/07 05:07:39;;;;;;;20.20;3.42;;;;;;;;;;5021025;28;20044;-88
2022/04/07 05:10:06;;;;;;;22.60;2.88;;;;;;;;;;5031045;28;20517;-88
2022/04/07 05:12:32;;;;;;;17.52;2.88;;;;;;;;;;5030338;28;20067;-87
2022/04/07 05:15:00;;;;;;;12.80;2.50;;;;;;;;;;5017971;28;20484;-88
2022/04/07 05:17:28;;;;;;;29.50;3.58;;;;;;;;;;5023902;28;20037;-87
2022/04/07 05:19:54;;;;;;;22.17;3.75;;;;;;;;;;5011266;28;20030;-88
2022/04/07 05:22:20;;;;;;;21.98;3.67;;;;;;;;;;5017539;28;20088;-87
2022/04/07 05:24:48;;;;;;;20.60;3.25;;;;;;;;;;5021353;28;20030;-88
2022/04/07 05:27:16;;;;;;;15.38;2.85;;;;;;;;;;5034983;28;20025;-85
2022/04/07 05:29:42;;;;;;;24.95;3.90;;;;;;;;;;5028006;28;20029;-88
2022/04/07 05:32:12;;;;;;;14.90;2.78;;;;;;;;;;5031972;28;20021;-87
2022/04/07 05:34:39;;;;;;;16.88;3.35;;;;;;;;;;5024301;28;20104;-86
2022/04/07 05:37:06;;;;;;;15.70;3.47;;;;;;;;;;5023399;28;20054;-85
2022/04/07 05:39:33;;;;;;;16.25;3.38;;;;;;;;;;5022270;28;20396;-84
2022/04/07 05:41:59;;;;;;;17.17;3.60;;;;;;;;;;5052067;28;20473;-85
2022/04/07 05:44:26;;;;;;;14.10;3.20;;;;;;;;;;5008251;28;20057;-86
2022/04/07 05:46:52;;;;;;;17.30;3.58;;;;;;;;;;5035970;28;20079;-86
2022/04/07 05:49:19;;;;;;;19.25;3.42;;;;;;;;;;5009785;28;20030;-87
2022/04/07 05:51:47;;;;;;;16.40;3.38;;;;;;;;;;5038609;28;20071;-86
2022/04/07 05:54:16;;;;;;;17.00;3.65;;;;;;;;;;5033699;28;20025;-86
2022/04/07 05:56:43;;;;;;;18.63;2.70;;;;;;;;;;5048845;28;20025;-85
2022/04/07 05:59:09;;;;;;;15.30;2.97;;;;;;;;;;5018648;28;20025;-86
2022/04/07 06:01:35;;;;;;;17.30;3.35;;;;;;;;;;5021868;28;20081;-85
2022/04/07 06:04:02;;;;;;;16.60;3.33;;;;;;;;;;5035600;28;20025;-86
2022/04/07 06:06:29;;;;;;;11.15;2.95;;;;;;;;;;5034956;28;20044;-86
2022/04/07 06:08:56;;;;;;;18.77;3.08;;;;;;;;;;5019354;28;20051;-85
2022/04/07 06:11:22;;;;;;;15.55;2.92;;;;;;;;;;4997684;28;20038;-85
2022/04/07 06:13:49;;;;;;;15.90;3.53;;;;;;;;;;5025791;28;20030;-86
2022/04/07 06:16:15;;;;;;;12.40;2.97;;;;;;;;;;5009644;28;20129;-86
2022/04/07 06:18:41;;;;;;;16.08;2.83;;;;;;;;;;5024494;28;20377;-86
2022/04/07 06:21:11;;;;;;;13.93;2.90;;;;;;;;;;5026172;28;20383;-85
2022/04/07 06:23:37;;;;;;;14.07;2.65;;;;;;;;;;5057086;28;20088;-85
2022/04/07 06:26:07;;;;;;;12.68;2.70;;;;;;;;;;5025782;28;20456;-86
2022/04/07 06:28:33;;;;;;;18.05;3.05;;;;;;;;;;5045712;28;20044;-85
2022/04/07 06:31:02;;;;;;;16.92;2.70;;;;;;;;;;5019765;28;20042;-85
2022/04/07 06:33:28;;;;;;;14.02;2.50;;;;;;;;;;5042743;28;20040;-85
2022/04/07 06:35:58;;;;;;;13.63;3.00;;;;;;;;;;5035267;28;20034;-85
2022/04/07 06:38:24;;;;;;;16.67;2.75;;;;;;;;;;5019168;28;20029;-86
2022/04/07 06:40:52;;;;;;;14.60;2.42;;;;;;;;;;5035997;28;20047;-86
2022/04/07 06:43:21;;;;;;;16.05;2.33;;;;;;;;;;5024607;28;20100;-85
2022/04/07 06:45:48;;;;;;;13.23;2.53;;;;;;;;;;5035611;28;20104;-86
2022/04/07 06:48:14;;;;;;;22.20;3.15;;;;;;;;;;5017665;28;20120;-86
2022/04/07 06:50:44;;;;;;;17.35;2.70;;;;;;;;;;5017410;28;20077;-87
2022/04/07 06:53:13;;;;;;;16.27;2.38;;;;;;;;;;5022915;28;20033;-86
2022/04/07 06:55:43;;;;;;;17.40;2.15;;;;;;;;;;5016527;28;20080;-86
2022/04/07 06:58:11;;;;;;;17.45;2.78;;;;;;;;;;5017541;28;20380;-86
2022/04/07 07:00:46;;;;;;;10.88;2.40;;;;;;;;;;5020503;28;20430;-85
2022/04/07 07:03:18;;;;;;;10.57;2.40;;;;;;;;;;5022715;28;20141;-86
2022/04/07 07:05:44;;;;;;;12.32;3.13;;;;;;;;;;5031531;28;20115;-86
2022/04/07 07:08:14;;;;;;;18.67;2.78;;;;;;;;;;5016645;28;20037;-85
2022/04/07 07:10:41;;;;;;;18.55;2.60;;;;;;;;;;5017157;28;20053;-86
2022/04/07 07:13:08;;;;;;;13.32;2.50;;;;;;;;;;5016048;28;20508;-86
2022/04/07 07:15:35;;;;;;;12.95;2.72;;;;;;;;;;5027107;28;20640;-86
2022/04/07 07:18:03;;;;;;;18.13;2.90;;;;;;;;;;5017717;28;20033;-86
2022/04/07 07:20:29;;;;;;;16.15;2.63;;;;;;;;;;5016746;28;20030;-86
2022/04/07 07:22:57;;;;;;;21.65;2.78;;;;;;;;;;5040365;28;20036;-86
2022/04/07 07:25:23;;;;;;;18.98;3.25;;;;;;;;;;5010390;28;20034;-86
2022/04/07 07:27:50;;;;;;;21.88;2.63;;;;;;;;;;5031242;28;20037;-86
2022/04/07 07:30:17;;;;;;;16.17;2.65;;;;;;;;;;5013945;28;20373;-87
2022/04/07 07:32:48;;;;;;;21.48;3.60;;;;;;;;;;5032218;28;20461;-87
2022/04/07 07:35:17;;;;;;;12.82;2.10;;;;;;;;;;5014223;28;20033;-85
2022/04/07 07:38:03;;;;;;;15.30;3.10;;;;;;;;;;5040581;28;20064;-85
2022/04/07 07:40:32;;;;;;;14.40;2.60;;;;;;;;;;5013246;28;20752;-86
2022/04/07 07:43:00;;;;;;;17.67;3.13;;;;;;;;;;5016545;28;20037;-86
2022/04/07 07:45:28;;;;;;;12.80;2.80;;;;;;;;;;5015758;28;20065;-86
2022/04/07 07:47:54;;;;;;;19.85;3.00;;;;;;;;;;5024691;28;20042;-86
2022/04/07 07:50:21;;;;;;;16.92;2.40;;;;;;;;;;5022557;28;20389;-86
2022/04/07 07:52:47;;;;;;;17.88;3.65;;;;;;;;;;5026949;28;20048;-86
2022/04/07 07:55:14;;;;;;;18.92;3.38;;;;;;;;;;5031359;28;20025;-86
2022/04/07 07:57:42;;;;;;;17.63;2.90;;;;;;;;;;4665920;28;10000032;-85
2022/04/07 08:00:10;;;;;;;18.52;2.85;;;;;;;;;;5020055;28;20046;-85
2022/04/07 08:02:37;;;;;;;16.98;2.67;;;;;;;;;;5026141;28;20041;-85
2022/04/07 08:05:04;;;;;;;18.55;3.03;;;;;;;;;;5001909;28;20042;-85
2022/04/07 08:07:30;;;;;;;15.40;2.75;;;;;;;;;;5022681;28;20037;-85
2022/04/07 08:09:57;;;;;;;22.63;4.10;;;;;;;;;;5036579;28;20033;-85
2022/04/07 08:12:24;;;;;;;25.17;5.13;;;;;;;;;;5017959;28;20030;-87
2022/04/07 08:14:51;;;;;;;18.98;4.40;;;;;;;;;;5025782;28;20033;-85
2022/04/07 08:17:20;;;;;;;23.83;4.50;;;;;;;;;;5037529;28;20076;-85
2022/04/07 08:19:46;;;;;;;21.80;3.95;;;;;;;;;;5015008;28;20037;-84
2022/04/07 08:22:13;;;;;;;24.50;4.35;;;;;;;;;;5012253;28;20040;-85
2022/04/07 08:24:39;;;;;;;24.48;3.63;;;;;;;;;;5022066;28;20090;-84
2022/04/07 08:27:06;;;;;;;30.33;5.47;;;;;;;;;;5014885;28;20034;-86
2022/04/07 08:29:33;;;;;;;24.98;4.25;;;;;;;;;;5019403;28;20035;-85
2022/04/07 08:32:05;;;;;;;68.45;8.02;;;;;;;;;;5033391;28;20025;-85
2022/04/07 08:34:31;;;;;;;115.22;11.10;;;;;;;;;;5027895;28;20036;-85
2022/04/07 08:37:01;;;;;;;100.00;10.43;;;;;;;;;;5012093;28;20451;-86
2022/04/07 08:39:28;;;;;;;75.85;6.88;;;;;;;;;;5018103;28;20029;-85
2022/04/07 08:42:07;;;;;;;82.15;8.68;;;;;;;;;;5017953;28;20034;-86
2022/04/07 08:44:34;;;;;;;53.30;7.88;;;;;;;;;;5037336;28;20089;-87
2022/04/07 08:47:01;;;;;;;95.00;8.70;;;;;;;;;;5030730;28;20041;-85
2022/04/07 08:49:38;;;;;;;43.22;7.70;;;;;;;;;;5030875;28;20504;-84
2022/04/07 08:52:07;;;;;;;56.53;6.88;;;;;;;;;;5030491;28;20131;-84
2022/04/07 08:54:39;;;;;;;49.10;6.57;;;;;;;;;;5033907;28;20761;-84
2022/04/07 08:57:05;;;;;;;53.58;7.28;;;;;;;;;;5026223;28;20033;-87
2022/04/07 08:59:32;;;;;;;53.67;7.45;;;;;;;;;;5019975;28;20033;-88
2022/04/07 09:02:06;;;;;;;53.80;6.63;;;;;;;;;;5015073;28;20033;-85
2022/04/07 09:04:42;;;;;;;93.80;10.23;;;;;;;;;;5020609;28;20057;-86
2022/04/07 09:07:12;;;;;;;96.93;11.73;;;;;;;;;;5011733;28;20037;-85
2022/04/07 09:09:39;;;;;;;193.30;13.82;;;;;;;;;;5013733;28;20069;-88
2022/04/07 09:12:06;;;;;;;163.05;13.68;;;;;;;;;;5018782;28;20041;-85
2022/04/07 09:14:33;;;;;;;160.73;15.02;;;;;;;;;;5019916;28;20072;-87
2022/04/07 09:17:00;;;;;;;115.38;9.68;;;;;;;;;;5018718;28;20555;-86
2022/04/07 09:19:31;;;;;;;89.55;8.77;;;;;;;;;;5027214;28;20441;-85
2022/04/07 09:22:07;;;;;;;79.15;10.15;;;;;;;;;;5013555;28;20072;-84
2022/04/07 09:24:46;;;;;;;74.32;8.85;;;;;;;;;;5015457;28;20041;-86
2022/04/07 09:27:12;;;;;;;157.57;14.77;;;;;;;;;;5011709;28;20037;-86
2022/04/07 09:29:39;;;;;;;232.88;20.65;;;;;;;;;;5009925;28;20038;-87
2022/04/07 09:32:17;;;;;;;216.90;21.83;;;;;;;;;;5015153;28;20029;-88
2022/04/07 09:34:43;;;;;;;206.38;20.55;;;;;;;;;;5020125;28;20120;-87
2022/04/07 09:37:11;;;;;;;182.32;18.25;;;;;;;;;;5016089;28;20065;-86
2022/04/07 09:39:40;;;;;;;131.55;15.38;;;;;;;;;;5021325;28;20061;-87
2022/04/07 09:42:20;;;;;;;126.47;16.08;;;;;;;;;;5012178;28;20366;-87
2022/04/07 09:45:01;;;;;;;110.18;13.18;;;;;;;;;;5006157;28;20477;-87
2022/04/07 09:47:44;;;;;;;117.78;12.02;;;;;;;;;;5027003;28;20101;-87
2022/04/07 09:50:38;;;;;;;95.22;11.35;;;;;;;;;;5023855;28;20025;-87
2022/04/07 09:53:05;;;;;;;90.03;9.82;;;;;;;;;;5028187;28;20068;-92
2022/04/07 09:55:35;;;;;;;91.97;10.07;;;;;;;;;;4677518;28;9999839;-86
2022/04/07 09:58:04;;;;;;;74.35;10.18;;;;;;;;;;5038161;28;20088;-86
2022/04/07 10:00:31;;;;;;;66.20;7.88;;;;;;;;;;5024930;28;20036;-88
2022/04/07 10:03:02;;;;;;;68.78;8.93;;;;;;;;;;5053465;28;20037;-88
2022/04/07 10:05:29;;;;;;;63.15;9.43;;;;;;;;;;5022414;28;20040;-88
2022/04/07 10:08:02;;;;;;;72.22;9.27;;;;;;;;;;5016189;28;20037;-90
2022/04/07 10:10:28;;;;;;;60.63;8.57;;;;;;;;;;5026808;28;20049;-89
2022/04/07 10:12:59;;;;;;;63.20;8.25;;;;;;;;;;5022949;28;20471;-88
2022/04/07 10:15:26;;;;;;;58.30;8.30;;;;;;;;;;5036069;28;20029;-87
2022/04/07 10:17:52;;;;;;;56.88;8.73;;;;;;;;;;5016303;28;20489;-87
2022/04/07 10:20:22;;;;;;;69.72;7.95;;;;;;;;;;5034801;28;20405;-88
2022/04/07 10:23:06;;;;;;;46.95;6.45;;;;;;;;;;5045668;28;20045;-87
2022/04/07 10:25:52;;;;;;;52.70;6.32;;;;;;;;;;5034356;28;20053;-88
2022/04/07 10:28:19;;;;;;;49.88;6.20;;;;;;;;;;5027922;28;20462;-87
2022/04/07 10:31:08;;;;;;;46.72;7.07;;;;;;;;;;5036626;28;20064;-89
2022/04/07 10:33:41;;;;;;;76.43;8.05;;;;;;;;;;5008148;28;20124;-90
2022/04/07 10:36:34;;;;;;;53.85;7.35;;;;;;;;;;5029822;28;20030;-87
2022/04/07 10:39:01;;;;;;;59.50;7.63;;;;;;;;;;5014413;28;20036;-89
2022/04/07 10:41:43;;;;;;;62.92;8.80;;;;;;;;;;5018418;28;20164;-89
2022/04/07 10:44:14;;;;;;;63.97;7.32;;;;;;;;;;5021664;28;20116;-88
2022/04/07 10:46:41;;;;;;;51.10;7.45;;;;;;;;;;5036684;28;20041;-88
2022/04/07 10:49:22;;;;;;;56.10;7.53;;;;;;;;;;5024832;28;20384;-89
2022/04/07 10:51:53;;;;;;;47.53;7.63;;;;;;;;;;5035269;28;20495;-88
2022/04/07 10:54:39;;;;;;;35.78;5.82;;;;;;;;;;5027952;28;20033;-88
2022/04/07 10:57:09;;;;;;;49.72;6.75;;;;;;;;;;5034157;28;20097;-89
2022/04/07 10:59:41;;;;;;;35.42;5.43;;;;;;;;;;5017827;28;20659;-88
2022/04/07 11:02:10;;;;;;;19.83;4.13;;;;;;;;;;5031886;28;20428;-90
2022/04/07 11:04:39;;;;;;;31.05;4.97;;;;;;;;;;5016414;28;20042;-89
2022/04/07 11:07:13;;;;;;;22.60;5.30;;;;;;;;;;4679953;28;10000442;-88
2022/04/07 11:13:06;;;;;;;19.27;4.82;;;;;;;;;;5027856;28;20088;-86
2022/04/07 11:15:35;;;;;;;32.38;5.07;;;;;;;;;;5031463;28;20422;-88
2022/04/07 11:18:15;;;;;;;26.65;5.07;;;;;;;;;;5026404;28;20034;-88
2022/04/07 11:21:05;;;;;;;24.75;5.57;;;;;;;;;;5022249;28;20026;-88
2022/04/07 11:23:45;;;;;;;24.20;5.32;;;;;;;;;;5016922;28;20488;-88
2022/04/07 11:26:12;;;;;;;21.40;4.95;;;;;;;;;;5027137;28;20072;-88
2022/04/07 11:29:06;;;;;;;20.17;4.30;;;;;;;;;;5014147;28;20034;-88
2022/04/07 11:31:43;;;;;;;26.67;4.53;;;;;;;;;;5028017;28;20057;-91
2022/04/07 11:37:19;;;;;;;26.48;4.65;;;;;;;;;;5035627;28;20492;-90
2022/04/07 11:39:46;;;;;;;30.80;5.05;;;;;;;;;;5023413;28;20769;-90
2022/04/07 11:42:17;;;;;;;37.78;8.48;;;;;;;;;;5023184;28;20127;-92
2022/04/07 11:44:47;;;;;;;42.42;7.47;;;;;;;;;;5034138;28;20037;-91
2022/04/07 11:47:31;;;;;;;31.30;6.55;;;;;;;;;;5050098;28;20053;-91
2022/04/07 11:50:02;;;;;;;25.15;7.10;;;;;;;;;;5035942;28;20132;-92
2022/04/07 11:52:30;;;;;;;31.30;6.40;;;;;;;;;;5036513;28;20124;-92
2022/04/07 11:55:09;;;;;;;25.80;6.15;;;;;;;;;;5032702;28;20037;-93
2022/04/07 11:57:36;;;;;;;28.50;5.88;;;;;;;;;;5036222;28;20044;-91
2022/04/07 12:00:05;;;;;;;37.97;6.13;;;;;;;;;;5028425;28;20053;-91
2022/04/07 12:02:32;;;;;;;29.75;6.03;;;;;;;;;;5040404;28;20090;-93
2022/04/07 12:05:02;;;;;;;30.80;7.93;;;;;;;;;;5035416;28;20041;-91
2022/04/07 12:35:16;;;;;;;26.55;6.75;;;;;;;;;;5062507;28;20109;-90
2022/04/07 12:37:47;;;;;;;17.73;6.50;;;;;;;;;;5057051;28;20041;-92
2022/04/07 12:40:16;;;;;;;19.80;6.60;;;;;;;;;;5063562;28;20035;-91
2022/04/07 12:42:50;;;;;;;24.02;7.03;;;;;;;;;;5052908;28;20063;-92
2022/04/07 12:45:17;;;;;;;22.63;6.43;;;;;;;;;;5054119;28;20032;-92
2022/04/07 12:48:01;;;;;;;24.95;7.05;;;;;;;;;;5056166;28;20051;-93
2022/04/07 12:50:27;;;;;;;24.63;6.25;;;;;;;;;;5049892;28;20036;-92
2022/04/07 12:52:54;;;;;;;18.48;7.32;;;;;;;;;;5059560;28;20043;-91
2022/04/07 12:55:20;;;;;;;32.83;9.63;;;;;;;;;;5055759;28;20376;-93
2022/04/07 12:57:47;;;;;;;19.80;6.60;;;;;;;;;;5065285;28;20388;-91
2022/04/07 13:00:18;;;;;;;29.65;8.18;;;;;;;;;;5059413;28;20063;-92
2022/04/07 13:02:48;;;;;;;47.28;16.30;;;;;;;;;;5054586;28;20063;-90
2022/04/07 13:05:21;;;;;;;50.38;16.63;;;;;;;;;;5055843;28;20044;-92
2022/04/07 13:07:54;;;;;;;32.95;12.60;;;;;;;;;;5067917;28;20032;-90
2022/04/07 13:10:21;;;;;;;43.78;12.38;;;;;;;;;;5056660;28;20037;-92
2022/04/07 13:12:47;;;;;;;31.98;8.65;;;;;;;;;;5056350;28;20028;-91
2022/04/07 13:15:16;;;;;;;24.85;8.38;;;;;;;;;;5055852;28;20127;-92
2022/04/07 13:17:43;;;;;;;23.75;7.45;;;;;;;;;;5056071;28;20352;-91
2022/04/07 13:20:22;;;;;;;32.03;8.27;;;;;;;;;;5044115;28;20405;-91
2022/04/07 13:22:49;;;;;;;27.63;7.90;;;;;;;;;;5052384;28;20047;-90
2022/04/07 13:25:17;;;;;;;26.48;7.35;;;;;;;;;;5056814;28;20067;-91
2022/04/07 13:27:43;;;;;;;26.35;6.47;;;;;;;;;;5057975;28;20166;-92
2022/04/07 13:30:10;;;;;;;29.25;7.70;;;;;;;;;;5054881;28;20059;-91
2022/04/07 13:32:41;;;;;;;27.13;8.07;;;;;;;;;;5050831;28;20086;-90
2022/04/07 13:35:08;;;;;;;30.30;7.95;;;;;;;;;;5055569;28;20047;-90
2022/04/07 13:37:34;;;;;;;28.80;8.93;;;;;;;;;;5057662;28;20041;-91
2022/04/07 13:40:02;;;;;;;34.60;8.38;;;;;;;;;;5069121;28;20056;-91
2022/04/07 13:42:29;;;;;;;37.97;7.50;;;;;;;;;;5061384;28;20528;-90
2022/04/07 13:44:57;;;;;;;33.38;8.07;;;;;;;;;;5052446;28;20036;-91
2022/04/07 13:47:24;;;;;;;48.03;10.00;;;;;;;;;;5053208;28;20033;-91
2022/04/07 13:49:50;;;;;;;45.65;11.27;;;;;;;;;;5050139;28;20033;-90
2022/04/07 13:52:17;;;;;;;44.65;13.48;;;;;;;;;;5053758;28;20036;-90
2022/04/07 13:54:44;;;;;;;38.70;12.95;;;;;;;;;;5051741;28;20041;-88
2022/04/07 13:57:11;;;;;;;60.42;16.23;;;;;;;;;;5068356;28;20040;-89
2022/04/07 14:00:06;;;;;;;47.00;12.32;;;;;;;;;;5071969;28;20049;-92
2022/04/07 14:02:32;;;;;;;44.90;9.60;;;;;;;;;;5052708;28;20423;-90
2022/04/07 14:05:00;;;;;;;54.53;9.88;;;;;;;;;;5055010;28;20086;-90
2022/04/07 14:07:26;;;;;;;45.55;9.70;;;;;;;;;;5055001;28;20036;-92
2022/04/07 14:10:14;;;;;;;48.90;10.73;;;;;;;;;;5055707;28;20040;-89
2022/04/07 14:12:40;;;;;;;42.85;9.90;;;;;;;;;;5055440;28;20040;-89
2022/04/07 14:15:14;;;;;;;42.03;10.50;;;;;;;;;;5056051;28;20033;-90
2022/04/07 14:17:40;;;;;;;46.53;11.93;;;;;;;;;;5051714;28;20029;-90
2022/04/07 14:20:08;;;;;;;32.50;7.47;;;;;;;;;;5054592;28;20601;-89
2022/04/07 14:22:34;;;;;;;30.00;5.90;;;;;;;;;;5063214;28;20033;-90
2022/04/07 14:25:01;;;;;;;33.95;5.88;;;;;;;;;;5069393;28;20037;-89
2022/04/07 14:27:27;;;;;;;42.05;6.60;;;;;;;;;;5053912;28;20067;-89
2022/04/07 14:29:55;;;;;;;36.40;8.00;;;;;;;;;;5054553;28;20139;-88
2022/04/07 14:32:21;;;;;;;50.20;10.82;;;;;;;;;;5068693;28;20029;-89
2022/04/07 14:34:48;;;;;;;42.60;8.88;;;;;;;;;;5054760;28;20041;-89
2022/04/07 14:37:14;;;;;;;34.47;7.57;;;;;;;;;;5055999;28;20028;-88
2022/04/07 14:39:40;;;;;;;39.58;7.60;;;;;;;;;;5058154;28;20390;-89
2022/04/07 14:42:09;;;;;;;36.58;7.63;;;;;;;;;;5057813;28;20031;-88
2022/04/07 14:44:36;;;;;;;39.25;6.40;;;;;;;;;;5058950;28;20037;-89
2022/04/07 14:47:13;;;;;;;33.83;6.82;;;;;;;;;;5057885;28;20376;-88
2022/04/07 14:49:39;;;;;;;33.85;6.20;;;;;;;;;;5057995;28;20037;-88
2022/04/07 14:52:10;;;;;;;31.20;7.43;;;;;;;;;;5072285;28;20054;-89
2022/04/07 14:54:37;;;;;;;36.60;6.10;;;;;;;;;;5061395;28;20045;-89
2022/04/07 14:57:04;;;;;;;30.05;8.18;;;;;;;;;;5054971;28;20033;-89
2022/04/07 14:59:32;;;;;;;36.25;7.70;;;;;;;;;;5055605;28;20029;-90
2022/04/07 15:02:02;;;;;;;42.42;8.40;;;;;;;;;;5069285;28;20063;-89
2022/04/07 15:04:28;;;;;;;34.33;6.85;;;;;;;;;;5057262;28;20033;-90
2022/04/07 15:06:54;;;;;;;30.38;7.47;;;;;;;;;;5068360;28;20032;-89
2022/04/07 15:09:21;;;;;;;33.80;7.18;;;;;;;;;;5061229;28;20148;-88
2022/04/07 15:11:50;;;;;;;36.03;7.10;;;;;;;;;;5054001;28;20036;-90
2022/04/07 15:14:16;;;;;;;36.03;6.50;;;;;;;;;;5062939;28;20036;-87